PWSweather.com
Personal Weather Stations
Station Observations
KNJOAKLA6
Oakland, NJ 07436

Oakland, NJ 07436

Lat: 41.041, Lon: -74.231

Elevation: 280

Station Type: Davis VP 2

http://stratacolorado.com/oaknjwx/

Latest ConditionsUpdated 11:00:00 AM EST Saturday, Jan 31, 2015
Currently Today's Max Today's Min Today's Average
Temperature 16.9°F-8.4°C 16.9°F-8.4°C 8.9°F-12.8°C 12.3°F-10.9°C
Dew Point 0.1°F-17.7°C 5.1°F-14.9°C -2.2°F-19.0°C 0.6°F-17.4°C
Winds 9.0 mph NNW14.5 kmh NNW 11.0 mph W17.7 kmh W - 5.9 mph 9.5 kmh
Wind Gusts 23.0 mph37.0 kmh 28.0 mph45.1 kmh - -
Humidity 47% 65% 47% 59%
Pressure 30.14 in1020.7 mb 30.14 in1020.7 mb 30.02 in1016.6 mb -
Hour Temp Dew Point Humidity Winds Wind Gusts Pressure Precip Precip Rate Daily Precip Total
11:00 AM 16.9°F-8.4°C 0.1°F-17.7°C 47% 9.0 mph NNW14.5 kmh NNW 23.0 mph37.0 kmh 30.14 in1020.7 mb 0.00 in0.0 mm 0.00 in/hr0.0 mm/hr 0.00 in0.0 mm
10:50 AM 16.2°F-8.8°C -0.1°F-17.8°C 48% 5.0 mph WNW8.0 kmh WNW 18.0 mph29.0 kmh 30.14 in1020.7 mb 0.00 in0.0 mm 0.00 in/hr0.0 mm/hr 0.00 in0.0 mm
10:40 AM 15.9°F-8.9°C -0.3°F-17.9°C 48% 10.0 mph NW16.1 kmh NW 21.0 mph33.8 kmh 30.14 in1020.7 mb 0.00 in0.0 mm 0.00 in/hr0.0 mm/hr 0.00 in0.0 mm
10:30 AM 15.3°F-9.3°C 0.0°F-17.8°C 50% 8.0 mph WNW12.9 kmh WNW 22.0 mph35.4 kmh 30.14 in1020.7 mb 0.00 in0.0 mm 0.00 in/hr0.0 mm/hr 0.00 in0.0 mm
10:20 AM 14.3°F-9.8°C -0.1°F-17.8°C 52% 2.0 mph WSW3.2 kmh WSW 18.0 mph29.0 kmh 30.14 in1020.7 mb 0.00 in0.0 mm 0.00 in/hr0.0 mm/hr 0.00 in0.0 mm
10:10 AM 13.6°F-10.2°C -0.4°F-18.0°C 53% 11.0 mph W17.7 kmh W 19.0 mph30.6 kmh 30.14 in1020.7 mb 0.00 in0.0 mm 0.00 in/hr0.0 mm/hr 0.00 in0.0 mm
10:00 AM 12.8°F-10.7°C -0.7°F-18.2°C 54% 6.0 mph WNW9.7 kmh WNW 18.0 mph29.0 kmh 30.14 in1020.7 mb 0.00 in0.0 mm 0.00 in/hr0.0 mm/hr 0.00 in0.0 mm
09:50 AM 12.2°F-11.0°C -1.3°F-18.5°C 54% 5.0 mph NW8.0 kmh NW 23.0 mph37.0 kmh 30.14 in1020.7 mb 0.00 in0.0 mm 0.00 in/hr0.0 mm/hr 0.00 in0.0 mm
09:40 AM 11.7°F-11.3°C -1.4°F-18.6°C 55% 9.0 mph WSW14.5 kmh WSW 18.0 mph29.0 kmh 30.13 in1020.3 mb 0.00 in0.0 mm 0.00 in/hr0.0 mm/hr 0.00 in0.0 mm
09:30 AM 11.4°F-11.4°C -1.3°F-18.5°C 56% 5.0 mph NNW8.0 kmh NNW 20.0 mph32.2 kmh 30.13 in1020.3 mb 0.00 in0.0 mm 0.00 in/hr0.0 mm/hr 0.00 in0.0 mm
09:20 AM 11.0°F-11.7°C -1.6°F-18.7°C 56% 7.0 mph NW11.3 kmh NW 21.0 mph33.8 kmh 30.13 in1020.3 mb 0.00 in0.0 mm 0.00 in/hr0.0 mm/hr 0.00 in0.0 mm
09:10 AM 10.6°F-11.9°C -1.6°F-18.7°C 57% 2.0 mph NNW3.2 kmh NNW 21.0 mph33.8 kmh 30.13 in1020.3 mb 0.00 in0.0 mm 0.00 in/hr0.0 mm/hr 0.00 in0.0 mm
09:00 AM 10.3°F-12.1°C -1.6°F-18.7°C 58% 1.0 mph NNE1.6 kmh NNE 15.0 mph24.1 kmh 30.13 in1020.3 mb 0.00 in0.0 mm 0.00 in/hr0.0 mm/hr 0.00 in0.0 mm
08:50 AM 10.0°F-12.2°C -1.8°F-18.8°C 58% 7.0 mph NW11.3 kmh NW 18.0 mph29.0 kmh 30.13 in1020.3 mb 0.00 in0.0 mm 0.00 in/hr0.0 mm/hr 0.00 in0.0 mm
08:40 AM 9.9°F-12.3°C -1.9°F-18.8°C 58% 5.0 mph NNW8.0 kmh NNW 25.0 mph40.2 kmh 30.13 in1020.3 mb 0.00 in0.0 mm 0.00 in/hr0.0 mm/hr 0.00 in0.0 mm
08:30 AM 9.6°F-12.4°C -1.9°F-18.8°C 59% 6.0 mph NE9.7 kmh NE 24.0 mph38.6 kmh 30.13 in1020.3 mb 0.00 in0.0 mm 0.00 in/hr0.0 mm/hr 0.00 in0.0 mm
08:20 AM 9.4°F-12.6°C -1.7°F-18.7°C 60% 2.0 mph NW3.2 kmh NW 14.0 mph22.5 kmh 30.12 in1020.0 mb 0.00 in0.0 mm 0.00 in/hr0.0 mm/hr 0.00 in0.0 mm
08:10 AM 9.3°F-12.6°C -1.8°F-18.8°C 60% 9.0 mph NW14.5 kmh NW 21.0 mph33.8 kmh 30.12 in1020.0 mb 0.00 in0.0 mm 0.00 in/hr0.0 mm/hr 0.00 in0.0 mm
08:00 AM 9.1°F-12.7°C -2.0°F-18.9°C 60% 4.0 mph WNW6.4 kmh WNW 18.0 mph29.0 kmh 30.12 in1020.0 mb 0.00 in0.0 mm 0.00 in/hr0.0 mm/hr 0.00 in0.0 mm
07:50 AM 9.0°F-12.8°C -2.1°F-18.9°C 60% 5.0 mph NW8.0 kmh NW 23.0 mph37.0 kmh 30.12 in1020.0 mb 0.00 in0.0 mm 0.00 in/hr0.0 mm/hr 0.00 in0.0 mm
07:40 AM 8.9°F-12.8°C -1.8°F-18.8°C 61% 7.0 mph WNW11.3 kmh WNW 16.0 mph25.7 kmh 30.12 in1020.0 mb 0.00 in0.0 mm 0.00 in/hr0.0 mm/hr 0.00 in0.0 mm
07:30 AM 8.9°F-12.8°C -1.8°F-18.8°C 61% 7.0 mph N11.3 kmh N 15.0 mph24.1 kmh 30.11 in1019.6 mb 0.00 in0.0 mm 0.00 in/hr0.0 mm/hr 0.00 in0.0 mm
07:20 AM 8.9°F-12.8°C -2.2°F-19.0°C 60% 4.0 mph WNW6.4 kmh WNW 13.0 mph20.9 kmh 30.11 in1019.6 mb 0.00 in0.0 mm 0.00 in/hr0.0 mm/hr 0.00 in0.0 mm
07:10 AM 9.1°F-12.7°C -2.0°F-18.9°C 60% 3.0 mph WSW4.8 kmh WSW 16.0 mph25.7 kmh 30.11 in1019.6 mb 0.00 in0.0 mm 0.00 in/hr0.0 mm/hr 0.00 in0.0 mm
07:00 AM 9.3°F-12.6°C -2.1°F-18.9°C 59% 5.0 mph N8.0 kmh N 16.0 mph25.7 kmh 30.10 in1019.3 mb 0.00 in0.0 mm 0.00 in/hr0.0 mm/hr 0.00 in0.0 mm
06:50 AM 9.6°F-12.4°C -1.9°F-18.8°C 59% 2.0 mph NNW3.2 kmh NNW 23.0 mph37.0 kmh 30.10 in1019.3 mb 0.00 in0.0 mm 0.00 in/hr0.0 mm/hr 0.00 in0.0 mm
06:40 AM 9.6°F-12.4°C -1.9°F-18.8°C 59% 6.0 mph WNW9.7 kmh WNW 19.0 mph30.6 kmh 30.10 in1019.3 mb 0.00 in0.0 mm 0.00 in/hr0.0 mm/hr 0.00 in0.0 mm
06:30 AM 9.7°F-12.4°C -1.8°F-18.8°C 59% 4.0 mph SSW6.4 kmh SSW 19.0 mph30.6 kmh 30.09 in1019.0 mb 0.00 in0.0 mm 0.00 in/hr0.0 mm/hr 0.00 in0.0 mm
06:20 AM 9.9°F-12.3°C -1.9°F-18.8°C 58% 3.0 mph NNW4.8 kmh NNW 20.0 mph32.2 kmh 30.08 in1018.6 mb 0.00 in0.0 mm 0.00 in/hr0.0 mm/hr 0.00 in0.0 mm
06:10 AM 10.0°F-12.2°C -1.8°F-18.8°C 58% 4.0 mph W6.4 kmh W 21.0 mph33.8 kmh 30.08 in1018.6 mb 0.00 in0.0 mm 0.00 in/hr0.0 mm/hr 0.00 in0.0 mm
06:00 AM 10.3°F-12.1°C -1.6°F-18.7°C 58% 7.0 mph NNW11.3 kmh NNW 24.0 mph38.6 kmh 30.08 in1018.6 mb 0.00 in0.0 mm 0.00 in/hr0.0 mm/hr 0.00 in0.0 mm
05:50 AM 10.4°F-12.0°C -1.8°F-18.8°C 57% 7.0 mph NW11.3 kmh NW 24.0 mph38.6 kmh 30.07 in1018.3 mb 0.00 in0.0 mm 0.00 in/hr0.0 mm/hr 0.00 in0.0 mm
05:40 AM 10.6°F-11.9°C -1.6°F-18.7°C 57% 5.0 mph NW8.0 kmh NW 20.0 mph32.2 kmh 30.08 in1018.6 mb 0.00 in0.0 mm 0.00 in/hr0.0 mm/hr 0.00 in0.0 mm
05:30 AM 10.8°F-11.8°C -1.5°F-18.6°C 57% 4.0 mph NNW6.4 kmh NNW 25.0 mph40.2 kmh 30.07 in1018.3 mb 0.00 in0.0 mm 0.00 in/hr0.0 mm/hr 0.00 in0.0 mm
05:20 AM 10.9°F-11.7°C -1.4°F-18.6°C 57% 6.0 mph NNW9.7 kmh NNW 28.0 mph45.1 kmh 30.07 in1018.3 mb 0.00 in0.0 mm 0.00 in/hr0.0 mm/hr 0.00 in0.0 mm
05:10 AM 11.1°F-11.6°C -1.2°F-18.4°C 57% 7.0 mph NW11.3 kmh NW 24.0 mph38.6 kmh 30.07 in1018.3 mb 0.00 in0.0 mm 0.00 in/hr0.0 mm/hr 0.00 in0.0 mm
05:00 AM 11.3°F-11.5°C -1.0°F-18.3°C 57% 8.0 mph NNW12.9 kmh NNW 23.0 mph37.0 kmh 30.07 in1018.3 mb 0.00 in0.0 mm 0.00 in/hr0.0 mm/hr 0.00 in0.0 mm
04:50 AM 11.4°F-11.4°C -0.5°F-18.1°C 58% 10.0 mph NNW16.1 kmh NNW 23.0 mph37.0 kmh 30.06 in1017.9 mb 0.00 in0.0 mm 0.00 in/hr0.0 mm/hr 0.00 in0.0 mm
04:40 AM 11.7°F-11.3°C -0.2°F-17.9°C 58% 7.0 mph NNW11.3 kmh NNW 17.0 mph27.4 kmh 30.06 in1017.9 mb 0.00 in0.0 mm 0.00 in/hr0.0 mm/hr 0.00 in0.0 mm
04:30 AM 11.9°F-11.2°C 0.0°F-17.8°C 58% 5.0 mph N8.0 kmh N 18.0 mph29.0 kmh 30.06 in1017.9 mb 0.00 in0.0 mm 0.00 in/hr0.0 mm/hr 0.00 in0.0 mm
04:20 AM 12.3°F-10.9°C 0.3°F-17.6°C 58% 10.0 mph NW16.1 kmh NW 24.0 mph38.6 kmh 30.07 in1018.3 mb 0.00 in0.0 mm 0.00 in/hr0.0 mm/hr 0.00 in0.0 mm
04:10 AM 12.6°F-10.8°C 0.2°F-17.7°C 57% 9.0 mph NW14.5 kmh NW 25.0 mph40.2 kmh 30.06 in1017.9 mb 0.00 in0.0 mm 0.00 in/hr0.0 mm/hr 0.00 in0.0 mm
04:00 AM 12.7°F-10.7°C 0.7°F-17.4°C 58% 8.0 mph NW12.9 kmh NW 25.0 mph40.2 kmh 30.06 in1017.9 mb 0.00 in0.0 mm 0.00 in/hr0.0 mm/hr 0.00 in0.0 mm
03:50 AM 12.9°F-10.6°C 1.3°F-17.1°C 59% 2.0 mph NNW3.2 kmh NNW 21.0 mph33.8 kmh 30.06 in1017.9 mb 0.00 in0.0 mm 0.00 in/hr0.0 mm/hr 0.00 in0.0 mm
03:40 AM 13.0°F-10.6°C 2.4°F-16.4°C 62% 6.0 mph WNW9.7 kmh WNW 17.0 mph27.4 kmh 30.06 in1017.9 mb 0.00 in0.0 mm 0.00 in/hr0.0 mm/hr 0.00 in0.0 mm
03:30 AM 13.1°F-10.5°C 2.9°F-16.2°C 63% 10.0 mph N16.1 kmh N 18.0 mph29.0 kmh 30.06 in1017.9 mb 0.00 in0.0 mm 0.00 in/hr0.0 mm/hr 0.00 in0.0 mm
03:20 AM 13.2°F-10.4°C 3.3°F-15.9°C 64% 2.0 mph N3.2 kmh N 16.0 mph25.7 kmh 30.06 in1017.9 mb 0.00 in0.0 mm 0.00 in/hr0.0 mm/hr 0.00 in0.0 mm
03:10 AM 13.3°F-10.4°C 3.7°F-15.7°C 65% 3.0 mph NW4.8 kmh NW 5.0 mph8.0 kmh 30.06 in1017.9 mb 0.00 in0.0 mm 0.00 in/hr0.0 mm/hr 0.00 in0.0 mm
03:00 AM 13.5°F-10.3°C 3.9°F-15.6°C 65% 4.0 mph NNE6.4 kmh NNE 11.0 mph17.7 kmh 30.06 in1017.9 mb 0.00 in0.0 mm 0.00 in/hr0.0 mm/hr 0.00 in0.0 mm
02:50 AM 13.7°F-10.2°C 4.1°F-15.5°C 65% 2.0 mph NW3.2 kmh NW 17.0 mph27.4 kmh 30.05 in1017.6 mb 0.00 in0.0 mm 0.00 in/hr0.0 mm/hr 0.00 in0.0 mm
02:40 AM 13.9°F-10.1°C 4.3°F-15.4°C 65% 3.0 mph WNW4.8 kmh WNW 12.0 mph19.3 kmh 30.05 in1017.6 mb 0.00 in0.0 mm 0.00 in/hr0.0 mm/hr 0.00 in0.0 mm
02:30 AM 14.0°F-10.0°C 4.4°F-15.3°C 65% 6.0 mph NNW9.7 kmh NNW 14.0 mph22.5 kmh 30.05 in1017.6 mb 0.00 in0.0 mm 0.00 in/hr0.0 mm/hr 0.00 in0.0 mm
02:20 AM 14.1°F-9.9°C 4.5°F-15.3°C 65% 6.0 mph N9.7 kmh N 16.0 mph25.7 kmh 30.05 in1017.6 mb 0.00 in0.0 mm 0.00 in/hr0.0 mm/hr 0.00 in0.0 mm
02:10 AM 14.3°F-9.8°C 4.3°F-15.4°C 64% 7.0 mph NNW11.3 kmh NNW 13.0 mph20.9 kmh 30.06 in1017.9 mb 0.00 in0.0 mm 0.00 in/hr0.0 mm/hr 0.00 in0.0 mm
02:00 AM 14.4°F-9.8°C 4.4°F-15.3°C 64% 7.0 mph NW11.3 kmh NW 22.0 mph35.4 kmh 30.05 in1017.6 mb 0.00 in0.0 mm 0.00 in/hr0.0 mm/hr 0.00 in0.0 mm
01:50 AM 14.4°F-9.8°C 4.4°F-15.3°C 64% 7.0 mph NW11.3 kmh NW 22.0 mph35.4 kmh 30.04 in1017.3 mb 0.00 in0.0 mm 0.00 in/hr0.0 mm/hr 0.00 in0.0 mm
01:40 AM 14.6°F-9.7°C 4.3°F-15.4°C 63% 10.0 mph NW16.1 kmh NW 21.0 mph33.8 kmh 30.05 in1017.6 mb 0.00 in0.0 mm 0.00 in/hr0.0 mm/hr 0.00 in0.0 mm
01:30 AM 14.7°F-9.6°C 4.0°F-15.6°C 62% 8.0 mph N12.9 kmh N 16.0 mph25.7 kmh 30.04 in1017.3 mb 0.00 in0.0 mm 0.00 in/hr0.0 mm/hr 0.00 in0.0 mm
01:20 AM 14.8°F-9.6°C 3.8°F-15.7°C 61% 6.0 mph W9.7 kmh W 24.0 mph38.6 kmh 30.04 in1017.3 mb 0.00 in0.0 mm 0.00 in/hr0.0 mm/hr 0.00 in0.0 mm
01:10 AM 14.9°F-9.5°C 3.9°F-15.6°C 61% 7.0 mph NW11.3 kmh NW 22.0 mph35.4 kmh 30.03 in1016.9 mb 0.00 in0.0 mm 0.00 in/hr0.0 mm/hr 0.00 in0.0 mm
01:00 AM 15.0°F-9.4°C 4.0°F-15.6°C 61% 4.0 mph NW6.4 kmh NW 15.0 mph24.1 kmh 30.03 in1016.9 mb 0.00 in0.0 mm 0.00 in/hr0.0 mm/hr 0.00 in0.0 mm
12:50 AM 15.1°F-9.4°C 4.1°F-15.5°C 61% 7.0 mph N11.3 kmh N 23.0 mph37.0 kmh 30.03 in1016.9 mb 0.00 in0.0 mm 0.00 in/hr0.0 mm/hr 0.00 in0.0 mm
12:40 AM 15.2°F-9.3°C 4.2°F-15.4°C 61% 7.0 mph NW11.3 kmh NW 19.0 mph30.6 kmh 30.03 in1016.9 mb 0.00 in0.0 mm 0.00 in/hr0.0 mm/hr 0.00 in0.0 mm
12:30 AM 15.4°F-9.2°C 4.3°F-15.4°C 61% 4.0 mph WNW6.4 kmh WNW 23.0 mph37.0 kmh 30.03 in1016.9 mb 0.00 in0.0 mm 0.00 in/hr0.0 mm/hr 0.00 in0.0 mm
12:20 AM 15.5°F-9.2°C 4.4°F-15.3°C 61% 7.0 mph N11.3 kmh N 20.0 mph32.2 kmh 30.03 in1016.9 mb 0.00 in0.0 mm 0.00 in/hr0.0 mm/hr 0.00 in0.0 mm
12:10 AM 15.6°F-9.1°C 4.5°F-15.3°C 61% 5.0 mph NNW8.0 kmh NNW 18.0 mph29.0 kmh 30.03 in1016.9 mb 0.00 in0.0 mm 0.00 in/hr0.0 mm/hr 0.00 in0.0 mm
12:00 AM 15.8°F-9.0°C 5.1°F-14.9°C 62% 9.0 mph NW14.5 kmh NW 16.0 mph25.7 kmh 30.02 in1016.6 mb 0.00 in0.0 mm 0.00 in/hr0.0 mm/hr 0.13 in3.3 mm